createdAt,value
2023-03-26T00:02:17.340Z,384.00
2023-03-26T00:06:17.370Z,385.00
2023-03-26T00:10:17.551Z,384.00
2023-03-26T00:14:17.613Z,382.00
2023-03-26T00:18:17.649Z,380.00
2023-03-26T00:22:17.681Z,376.00
2023-03-26T00:26:17.808Z,377.00
2023-03-26T00:30:17.973Z,377.00
2023-03-26T00:34:18.214Z,377.00
2023-03-26T00:38:18.261Z,377.00
2023-03-26T00:42:18.315Z,379.00
2023-03-26T00:46:18.452Z,378.00
2023-03-26T00:50:18.494Z,378.00
2023-03-26T00:54:18.613Z,378.00
2023-03-26T00:58:18.753Z,378.00
2023-03-26T01:02:18.943Z,378.00
2023-03-26T01:06:19.087Z,379.00
2023-03-26T01:10:19.199Z,375.00
2023-03-26T01:14:19.422Z,378.00
2023-03-26T01:18:19.506Z,382.00
2023-03-26T01:22:19.633Z,379.00
2023-03-26T01:26:19.818Z,379.00
2023-03-26T01:30:19.943Z,379.00
2023-03-26T01:34:20.124Z,379.00
2023-03-26T01:38:20.244Z,382.00
2023-03-26T01:42:20.358Z,381.00
2023-03-26T01:46:20.445Z,380.00
2023-03-26T01:50:20.581Z,377.00
2023-03-26T01:54:20.714Z,376.00
2023-03-26T01:58:20.855Z,381.00
2023-03-26T02:02:21.102Z,379.00
2023-03-26T02:06:21.122Z,378.00
2023-03-26T02:10:21.251Z,381.00
2023-03-26T02:14:21.370Z,382.00
2023-03-26T02:18:21.511Z,379.00
2023-03-26T02:22:21.665Z,378.00
2023-03-26T02:26:21.799Z,375.00
2023-03-26T02:30:21.880Z,373.00
2023-03-26T02:34:22.053Z,373.00
2023-03-26T02:38:22.176Z,376.00
2023-03-26T02:42:22.385Z,373.00
2023-03-26T02:46:22.546Z,374.00
2023-03-26T02:50:22.644Z,372.00
2023-03-26T02:54:22.840Z,371.00
2023-03-26T02:58:23.039Z,371.00
2023-03-26T03:02:23.067Z,370.00
2023-03-26T03:06:22.985Z,362.00
2023-03-26T03:10:22.958Z,367.00
2023-03-26T03:14:22.873Z,367.00
2023-03-26T03:18:22.864Z,371.00
2023-03-26T03:22:22.784Z,371.00
2023-03-26T03:26:22.778Z,369.00
2023-03-26T03:30:22.771Z,368.00
2023-03-26T03:34:22.718Z,371.00
2023-03-26T03:38:22.771Z,367.00
2023-03-26T03:42:22.639Z,368.00
2023-03-26T03:46:22.711Z,369.00
2023-03-26T03:50:22.606Z,364.00
2023-03-26T03:54:22.601Z,367.00
2023-03-26T03:58:22.569Z,363.00
2023-03-26T04:02:22.609Z,365.00
2023-03-26T04:06:22.476Z,363.00
2023-03-26T04:10:22.452Z,359.00
2023-03-26T04:14:22.405Z,358.00
2023-03-26T04:18:22.342Z,366.00
2023-03-26T04:22:22.348Z,369.00
2023-03-26T04:26:22.308Z,368.00
2023-03-26T04:30:22.276Z,371.00
2023-03-26T04:34:22.259Z,368.00
2023-03-26T04:38:22.377Z,369.00
2023-03-26T04:42:22.365Z,369.00
2023-03-26T04:46:22.363Z,367.00
2023-03-26T04:50:22.306Z,368.00
2023-03-26T04:54:22.286Z,366.00
2023-03-26T04:58:22.206Z,366.00
2023-03-26T05:02:22.756Z,368.00
2023-03-26T05:06:22.172Z,373.00
2023-03-26T05:10:22.088Z,369.00
2023-03-26T05:14:22.120Z,365.00
2023-03-26T05:18:22.058Z,361.00
2023-03-26T05:22:22.019Z,366.00
2023-03-26T05:26:22.143Z,371.00
2023-03-26T05:30:22.232Z,365.00
2023-03-26T05:34:22.478Z,362.00
2023-03-26T05:38:22.698Z,362.00
2023-03-26T05:42:22.863Z,363.00
2023-03-26T05:46:23.120Z,366.00
2023-03-26T05:50:24.214Z,363.00
2023-03-26T05:54:23.459Z,363.00
2023-03-26T05:58:23.649Z,363.00
2023-03-26T06:02:23.947Z,363.00
2023-03-26T06:06:24.002Z,364.00
2023-03-26T06:10:24.134Z,367.00
2023-03-26T06:14:24.368Z,369.00
2023-03-26T06:18:24.634Z,369.00
2023-03-26T06:22:24.779Z,362.00
2023-03-26T06:26:24.965Z,361.00
2023-03-26T06:30:25.131Z,364.00
2023-03-26T06:34:25.318Z,366.00
2023-03-26T06:38:25.470Z,364.00
2023-03-26T06:42:31.988Z,362.00
2023-03-26T06:46:26.642Z,357.00
2023-03-26T06:50:25.578Z,363.00
2023-03-26T06:54:25.530Z,362.00
2023-03-26T06:58:25.696Z,365.00
2023-03-26T07:02:25.916Z,362.00
2023-03-26T07:06:25.957Z,365.00
2023-03-26T07:10:26.097Z,362.00
2023-03-26T07:14:26.378Z,358.00
2023-03-26T07:18:26.340Z,358.00
2023-03-26T07:22:26.421Z,359.00
2023-03-26T07:26:26.469Z,358.00
2023-03-26T07:30:26.489Z,352.00
2023-03-26T07:34:26.476Z,355.00
2023-03-26T07:38:26.531Z,357.00
2023-03-26T07:42:26.754Z,354.00
2023-03-26T07:46:26.432Z,355.00
2023-03-26T07:50:26.411Z,353.00
2023-03-26T07:54:26.378Z,354.00
2023-03-26T07:58:26.358Z,352.00
2023-03-26T08:02:26.300Z,355.00
2023-03-26T08:06:26.247Z,358.00
2023-03-26T08:10:26.204Z,356.00
2023-03-26T08:14:26.234Z,354.00
2023-03-26T08:18:26.442Z,357.00
2023-03-26T08:22:26.472Z,355.00
2023-03-26T08:26:26.384Z,354.00
2023-03-26T08:30:26.343Z,355.00
2023-03-26T08:34:26.268Z,354.00
2023-03-26T08:38:26.268Z,356.00
2023-03-26T08:42:26.203Z,354.00
2023-03-26T08:46:26.185Z,356.00
2023-03-26T08:50:26.134Z,355.00
2023-03-26T08:54:26.121Z,356.00
2023-03-26T08:58:26.094Z,354.00
2023-03-26T09:02:26.111Z,353.00
2023-03-26T09:06:26.135Z,354.00
2023-03-26T09:10:26.111Z,352.00
2023-03-26T09:14:26.066Z,352.00
2023-03-26T09:18:26.087Z,349.00
2023-03-26T09:22:26.014Z,354.00
2023-03-26T09:26:25.975Z,349.00
2023-03-26T09:30:25.932Z,354.00
2023-03-26T09:34:25.906Z,353.00
2023-03-26T09:38:25.856Z,351.00
2023-03-26T09:42:25.818Z,352.00
2023-03-26T09:46:25.811Z,352.00
2023-03-26T09:50:25.816Z,352.00
2023-03-26T09:54:25.930Z,352.00
2023-03-26T09:58:25.895Z,353.00
2023-03-26T10:02:45.579Z,350.00
2023-03-26T10:06:26.824Z,350.00
2023-03-26T10:10:25.754Z,350.00
2023-03-26T10:14:25.916Z,346.00
2023-03-26T10:18:27.169Z,350.00
2023-03-26T10:22:26.092Z,344.00
2023-03-26T10:26:26.080Z,347.00
2023-03-26T10:30:26.024Z,351.00
2023-03-26T10:34:29.345Z,349.00
2023-03-26T10:38:25.912Z,352.00
2023-03-26T10:42:25.921Z,354.00
2023-03-26T10:46:25.908Z,353.00
2023-03-26T10:50:25.836Z,355.00
2023-03-26T10:54:25.804Z,356.00
2023-03-26T10:58:25.798Z,354.00
2023-03-26T11:02:29.117Z,353.00
2023-03-26T11:06:25.720Z,352.00
2023-03-26T11:10:25.663Z,351.00
2023-03-26T11:14:34.427Z,354.00
2023-03-26T11:18:26.613Z,354.00
2023-03-26T11:22:25.574Z,351.00
2023-03-26T11:26:25.671Z,346.00
2023-03-26T11:30:25.858Z,347.00
2023-03-26T11:34:26.049Z,353.00
2023-03-26T11:38:26.282Z,351.00
2023-03-26T11:42:26.470Z,349.00
2023-03-26T11:46:26.701Z,350.00
2023-03-26T11:50:26.826Z,353.00
2023-03-26T11:54:26.987Z,354.00
2023-03-26T11:58:27.181Z,356.00
2023-03-26T12:02:27.424Z,356.00
2023-03-26T12:06:27.497Z,354.00
2023-03-26T12:10:27.668Z,354.00
2023-03-26T12:14:27.905Z,352.00
2023-03-26T12:18:27.837Z,352.00
2023-03-26T12:22:27.801Z,351.00
2023-03-26T12:26:27.782Z,358.00
2023-03-26T12:30:27.706Z,353.00
2023-03-26T12:34:27.669Z,356.00
2023-03-26T12:38:27.628Z,352.00
2023-03-26T12:44:56.340Z,351.00
2023-03-26T12:47:55.106Z,350.00
2023-03-26T12:50:34.668Z,347.00
2023-03-26T12:54:28.517Z,343.00
2023-03-26T12:58:27.491Z,345.00
2023-03-26T13:02:27.565Z,342.00
2023-03-26T13:06:27.473Z,340.00
2023-03-26T13:10:27.339Z,344.00
2023-03-26T13:14:27.292Z,346.00
2023-03-26T13:18:27.284Z,349.00
2023-03-26T13:22:27.439Z,346.00
2023-03-26T13:26:27.345Z,349.00
2023-03-26T13:30:27.380Z,349.00
2023-03-26T13:34:27.301Z,345.00
2023-03-26T13:38:27.248Z,343.00
2023-03-26T13:42:27.221Z,344.00
2023-03-26T13:46:27.214Z,345.00
2023-03-26T13:50:27.165Z,349.00
2023-03-26T13:54:27.121Z,352.00
2023-03-26T13:58:27.110Z,352.00
2023-03-26T14:02:28.062Z,353.00
2023-03-26T14:06:27.078Z,350.00
2023-03-26T14:10:27.033Z,352.00
2023-03-26T14:14:27.001Z,354.00
2023-03-26T14:18:26.955Z,354.00
2023-03-26T14:22:26.918Z,351.00
2023-03-26T14:26:26.887Z,350.00
2023-03-26T14:30:26.853Z,349.00
2023-03-26T14:34:26.806Z,353.00
2023-03-26T14:38:26.822Z,354.00
2023-03-26T14:42:26.722Z,352.00
2023-03-26T14:46:26.792Z,350.00
2023-03-26T14:50:26.690Z,351.00
2023-03-26T14:54:26.646Z,348.00
2023-03-26T14:58:26.632Z,348.00
2023-03-26T15:02:26.632Z,350.00
2023-03-26T15:06:26.524Z,351.00
2023-03-26T15:10:26.517Z,346.00
2023-03-26T15:14:26.443Z,348.00
2023-03-26T15:18:26.431Z,353.00
2023-03-26T15:22:26.357Z,351.00
2023-03-26T15:26:26.389Z,344.00
2023-03-26T15:30:27.019Z,348.00
2023-03-26T15:34:26.244Z,346.00
2023-03-26T15:38:26.911Z,348.00
2023-03-26T15:42:26.168Z,349.00
2023-03-26T15:46:26.254Z,348.00
2023-03-26T15:50:26.087Z,342.00
2023-03-26T15:54:26.090Z,337.00
2023-03-26T15:58:26.105Z,340.00
2023-03-26T16:02:26.185Z,341.00
2023-03-26T16:06:26.109Z,338.00
2023-03-26T16:10:26.075Z,337.00
2023-03-26T16:14:26.092Z,339.00
2023-03-26T16:18:26.112Z,338.00
2023-03-26T16:22:26.445Z,342.00
2023-03-26T16:26:26.110Z,344.00
2023-03-26T16:30:26.193Z,349.00
2023-03-26T16:34:26.185Z,347.00
2023-03-26T16:38:26.262Z,344.00
2023-03-26T16:42:26.224Z,345.00
2023-03-26T16:46:26.270Z,344.00
2023-03-26T16:50:26.245Z,347.00
2023-03-26T16:54:26.295Z,345.00
2023-03-26T16:58:26.305Z,341.00
2023-03-26T17:02:26.396Z,340.00
2023-03-26T17:06:26.335Z,339.00
2023-03-26T17:10:26.385Z,342.00
2023-03-26T17:14:26.422Z,344.00
2023-03-26T17:18:26.517Z,340.00
2023-03-26T17:22:26.615Z,338.00
2023-03-26T17:26:26.570Z,336.00
2023-03-26T17:30:26.600Z,342.00
2023-03-26T17:34:26.639Z,343.00
2023-03-26T17:38:26.640Z,344.00
2023-03-26T17:42:26.771Z,346.00
2023-03-26T17:46:26.922Z,344.00
2023-03-26T17:50:26.916Z,344.00
2023-03-26T17:54:26.988Z,340.00
2023-03-26T17:58:27.026Z,342.00
2023-03-26T18:02:27.065Z,340.00
2023-03-26T18:06:27.045Z,339.00
2023-03-26T18:10:27.154Z,341.00
2023-03-26T18:14:27.148Z,337.00
2023-03-26T18:18:27.262Z,339.00
2023-03-26T18:22:27.308Z,341.00
2023-03-26T18:26:27.405Z,343.00
2023-03-26T18:30:27.446Z,342.00
2023-03-26T18:34:27.551Z,342.00
2023-03-26T18:38:36.338Z,346.00
2023-03-26T18:42:28.524Z,345.00
2023-03-26T18:46:27.518Z,343.00
2023-03-26T18:50:27.511Z,342.00
2023-03-26T18:54:27.424Z,342.00
2023-03-26T18:58:27.406Z,345.00
2023-03-26T19:02:27.565Z,345.00
2023-03-26T19:06:27.562Z,342.00
2023-03-26T19:10:27.986Z,343.00
2023-03-26T19:14:27.763Z,340.00
2023-03-26T19:18:27.883Z,338.00
2023-03-26T19:22:28.048Z,340.00
2023-03-26T19:26:28.045Z,343.00
2023-03-26T19:30:28.351Z,342.00
2023-03-26T19:34:28.355Z,335.00
2023-03-26T19:38:28.434Z,339.00
2023-03-26T19:42:42.856Z,339.00
2023-03-26T19:46:29.594Z,338.00
2023-03-26T19:50:28.524Z,341.00
2023-03-26T19:54:28.392Z,340.00
2023-03-26T19:58:28.426Z,342.00
2023-03-26T20:02:28.503Z,340.00
2023-03-26T20:06:41.774Z,344.00
2023-03-26T20:10:29.530Z,344.00
2023-03-26T20:14:28.489Z,339.00
2023-03-26T20:18:28.466Z,341.00
2023-03-26T20:22:28.421Z,343.00
2023-03-26T20:26:28.516Z,339.00
2023-03-26T20:30:37.366Z,339.00
2023-03-26T20:34:29.718Z,337.00
2023-03-26T20:38:39.007Z,346.00
2023-03-26T20:42:29.606Z,347.00
2023-03-26T20:46:30.847Z,346.00
2023-03-26T20:50:28.835Z,348.00
2023-03-26T20:54:28.505Z,347.00
2023-03-26T20:58:31.129Z,346.00
2023-03-26T21:02:28.449Z,346.00
2023-03-26T21:06:28.446Z,346.00
2023-03-26T21:10:28.351Z,351.00
2023-03-26T21:14:28.383Z,347.00
2023-03-26T21:18:28.307Z,346.00
2023-03-26T21:22:28.252Z,343.00
2023-03-26T21:26:28.223Z,347.00
2023-03-26T21:30:28.217Z,347.00
2023-03-26T21:34:28.374Z,344.00
2023-03-26T21:38:28.595Z,342.00
2023-03-26T21:42:28.653Z,342.00
2023-03-26T21:46:28.967Z,339.00
2023-03-26T21:50:29.023Z,339.00
2023-03-26T21:54:29.227Z,341.00
2023-03-26T21:58:29.464Z,337.00
2023-03-26T22:02:29.398Z,338.00
2023-03-26T22:06:29.400Z,341.00
2023-03-26T22:10:29.323Z,342.00
2023-03-26T22:14:29.309Z,340.00
2023-03-26T22:18:29.294Z,340.00
2023-03-26T22:22:29.262Z,336.00
2023-03-26T22:26:29.173Z,338.00
2023-03-26T22:30:29.155Z,339.00
2023-03-26T22:34:29.077Z,340.00
2023-03-26T22:38:29.061Z,337.00
2023-03-26T22:42:29.053Z,339.00
2023-03-26T22:46:29.071Z,336.00
2023-03-26T22:50:29.227Z,337.00
2023-03-26T22:54:29.354Z,334.00
2023-03-26T22:58:29.552Z,336.00
2023-03-26T23:02:29.789Z,338.00
2023-03-26T23:06:29.940Z,340.00
2023-03-26T23:10:30.257Z,341.00
2023-03-26T23:14:30.324Z,339.00
2023-03-26T23:18:30.538Z,341.00
2023-03-26T23:22:30.749Z,343.00
2023-03-26T23:26:35.082Z,340.00
2023-03-26T23:30:31.824Z,341.00
2023-03-26T23:34:30.817Z,344.00
2023-03-26T23:38:44.228Z,341.00
2023-03-26T23:42:31.998Z,339.00
2023-03-26T23:46:31.131Z,340.00
2023-03-26T23:50:30.826Z,340.00
2023-03-26T23:54:30.982Z,337.00
2023-03-26T23:58:31.121Z,333.00
